createdAt,value
2023-02-11T00:00:43.494Z,4.28
2023-02-11T00:03:10.837Z,3.90
2023-02-11T00:05:38.175Z,4.55
2023-02-11T00:08:05.818Z,3.90
2023-02-11T00:10:33.143Z,4.03
2023-02-11T00:13:00.482Z,5.35
2023-02-11T00:15:27.736Z,3.78
2023-02-11T00:17:55.041Z,3.83
2023-02-11T00:20:22.283Z,5.00
2023-02-11T00:22:49.564Z,4.07
2023-02-11T00:25:16.862Z,3.80
2023-02-11T00:27:44.055Z,4.22
2023-02-11T00:30:13.452Z,4.55
2023-02-11T00:32:42.602Z,4.43
2023-02-11T00:35:09.897Z,5.07
2023-02-11T00:37:37.195Z,4.70
2023-02-11T00:40:06.834Z,4.13
2023-02-11T00:42:35.699Z,4.15
2023-02-11T00:45:03.387Z,3.78
2023-02-11T00:47:30.710Z,4.65
2023-02-11T00:49:57.959Z,4.85
2023-02-11T00:52:27.836Z,4.68
2023-02-11T00:54:55.064Z,4.22
2023-02-11T00:57:22.369Z,4.38
2023-02-11T00:59:50.666Z,4.85
2023-02-11T01:02:19.249Z,4.13
2023-02-11T01:04:46.576Z,4.00
2023-02-11T01:07:13.868Z,4.82
2023-02-11T01:09:41.478Z,3.90
2023-02-11T01:12:08.713Z,4.25
2023-02-11T01:14:35.980Z,4.55
2023-02-11T01:17:05.272Z,4.70
2023-02-11T01:19:32.604Z,4.15
2023-02-11T01:21:59.918Z,4.70
2023-02-11T01:24:27.277Z,4.07
2023-02-11T01:26:54.537Z,4.13
2023-02-11T01:29:24.646Z,5.28
2023-02-11T01:31:54.997Z,5.60
2023-02-11T01:34:22.357Z,4.95
2023-02-11T01:36:50.565Z,5.03
2023-02-11T01:39:17.852Z,4.50
2023-02-11T01:41:46.991Z,4.70
2023-02-11T01:44:33.426Z,4.78
2023-02-11T01:47:01.150Z,3.95
2023-02-11T01:49:30.196Z,4.40
2023-02-11T01:52:02.795Z,5.07
2023-02-11T01:54:53.499Z,4.38
2023-02-11T01:57:22.760Z,4.93
2023-02-11T01:59:50.173Z,4.63
2023-02-11T02:02:20.791Z,4.40
2023-02-11T02:04:54.139Z,4.72
2023-02-11T02:07:33.428Z,3.90
2023-02-11T02:10:04.270Z,4.88
2023-02-11T02:12:31.579Z,5.10
2023-02-11T02:15:17.631Z,4.80
2023-02-11T02:17:49.486Z,5.13
2023-02-11T02:20:19.835Z,5.10
2023-02-11T02:23:04.688Z,5.68
2023-02-11T02:25:39.633Z,5.40
2023-02-11T02:28:22.228Z,4.88
2023-02-11T02:30:49.553Z,4.50
2023-02-11T02:33:23.297Z,5.32
2023-02-11T02:35:50.846Z,4.82
2023-02-11T02:38:28.412Z,5.25
2023-02-11T02:40:58.712Z,4.90
2023-02-11T02:43:27.252Z,4.40
2023-02-11T02:45:54.629Z,5.00
2023-02-11T02:48:39.953Z,5.68
2023-02-11T02:51:11.714Z,5.85
2023-02-11T02:53:57.825Z,4.45
2023-02-11T02:56:25.120Z,4.97
2023-02-11T02:59:04.906Z,4.95
2023-02-11T03:01:41.307Z,4.78
2023-02-11T03:04:21.838Z,5.25
2023-02-11T03:06:52.128Z,5.25
2023-02-11T03:09:24.934Z,7.18
2023-02-11T03:11:52.218Z,5.70
2023-02-11T03:14:20.058Z,4.63
2023-02-11T03:16:49.243Z,6.10
2023-02-11T03:19:20.519Z,7.03
2023-02-11T03:21:49.696Z,5.68
2023-02-11T03:24:19.222Z,6.20
2023-02-11T03:26:54.365Z,6.28
2023-02-11T03:30:00.389Z,6.30
2023-02-11T03:32:30.026Z,6.40
2023-02-11T03:34:57.241Z,7.22
2023-02-11T03:37:24.475Z,6.38
2023-02-11T03:39:57.235Z,6.70
2023-02-11T03:42:27.351Z,6.93
2023-02-11T03:44:58.050Z,8.27
2023-02-11T03:47:26.742Z,7.00
2023-02-11T03:49:55.419Z,8.10
2023-02-11T03:52:23.624Z,7.65
2023-02-11T03:54:54.112Z,7.25
2023-02-11T04:00:02.744Z,6.43
2023-02-11T04:02:39.290Z,7.40
2023-02-11T04:05:07.920Z,8.13
2023-02-11T04:07:35.587Z,8.35
2023-02-11T04:10:02.835Z,8.60
2023-02-11T04:12:30.079Z,7.45
2023-02-11T04:14:57.340Z,7.18
2023-02-11T04:17:25.154Z,7.13
2023-02-11T04:19:52.453Z,7.07
2023-02-11T04:22:19.762Z,7.43
2023-02-11T04:24:47.068Z,7.35
2023-02-11T04:27:14.400Z,7.95
2023-02-11T04:29:41.721Z,7.57
2023-02-11T04:32:09.312Z,8.60
2023-02-11T04:34:36.636Z,8.00
2023-02-11T04:37:04.051Z,7.18
2023-02-11T04:39:31.337Z,7.25
2023-02-11T04:41:58.582Z,8.35
2023-02-11T04:44:25.924Z,7.57
2023-02-11T04:46:53.254Z,9.05
2023-02-11T04:49:20.557Z,7.60
2023-02-11T04:51:49.596Z,7.72
2023-02-11T04:54:17.088Z,7.95
2023-02-11T04:56:44.484Z,9.93
2023-02-11T04:59:13.563Z,9.73
2023-02-11T05:01:41.251Z,10.52
2023-02-11T05:04:08.665Z,8.25
2023-02-11T05:06:35.960Z,8.43
2023-02-11T05:09:03.257Z,8.70
2023-02-11T05:11:30.552Z,8.23
2023-02-11T05:13:57.878Z,9.05
2023-02-11T05:16:25.240Z,9.07
2023-02-11T05:18:53.697Z,9.18
2023-02-11T05:21:21.176Z,10.00
2023-02-11T05:23:48.428Z,8.75
2023-02-11T05:26:15.756Z,9.43
2023-02-11T05:28:43.100Z,8.68
2023-02-11T05:31:11.053Z,9.68
2023-02-11T05:33:38.657Z,9.35
2023-02-11T05:36:08.228Z,10.18
2023-02-11T05:38:35.667Z,10.20
2023-02-11T05:41:03.092Z,9.90
2023-02-11T05:43:30.402Z,10.32
2023-02-11T05:45:57.766Z,9.75
2023-02-11T05:48:25.073Z,11.65
2023-02-11T05:50:52.299Z,10.65
2023-02-11T05:53:19.672Z,10.38
2023-02-11T05:55:47.013Z,10.57
2023-02-11T05:58:14.249Z,9.68
2023-02-11T06:00:41.598Z,10.63
2023-02-11T06:03:08.870Z,10.32
2023-02-11T06:05:36.187Z,11.32
2023-02-11T06:08:03.509Z,10.95
2023-02-11T06:10:31.032Z,11.43
2023-02-11T06:12:58.260Z,11.13
2023-02-11T06:15:25.575Z,11.40
2023-02-11T06:17:53.046Z,11.65
2023-02-11T06:20:20.376Z,11.38
2023-02-11T06:22:47.814Z,16.15
2023-02-11T06:25:15.792Z,13.55
2023-02-11T06:27:43.053Z,11.75
2023-02-11T06:30:10.649Z,11.15
2023-02-11T06:32:46.132Z,12.23
2023-02-11T06:35:14.606Z,12.25
2023-02-11T06:37:42.611Z,12.40
2023-02-11T06:40:10.473Z,13.73
2023-02-11T06:42:39.146Z,11.88
2023-02-11T06:45:08.995Z,14.35
2023-02-11T06:47:36.294Z,16.90
2023-02-11T06:50:03.885Z,14.90
2023-02-11T06:52:31.189Z,13.13
2023-02-11T06:54:58.439Z,12.73
2023-02-11T06:57:25.748Z,12.93
2023-02-11T06:59:53.048Z,14.10
2023-02-11T07:02:21.109Z,12.80
2023-02-11T07:04:48.684Z,14.02
2023-02-11T07:07:16.340Z,13.57
2023-02-11T07:09:43.757Z,13.57
2023-02-11T07:12:11.253Z,13.50
2023-02-11T07:14:38.686Z,14.45
2023-02-11T07:17:06.074Z,14.15
2023-02-11T07:19:33.358Z,14.52
2023-02-11T07:22:00.667Z,14.55
2023-02-11T07:24:28.114Z,14.30
2023-02-11T07:26:55.429Z,13.13
2023-02-11T07:29:22.693Z,14.65
2023-02-11T07:31:50.588Z,15.15
2023-02-11T07:34:18.020Z,15.27
2023-02-11T07:36:45.880Z,14.52
2023-02-11T07:39:13.668Z,15.80
2023-02-11T07:41:41.252Z,14.88
2023-02-11T07:44:08.518Z,17.35
2023-02-11T07:46:35.966Z,18.50
2023-02-11T07:49:03.598Z,20.58
2023-02-11T07:51:31.363Z,18.63
2023-02-11T07:53:59.497Z,17.15
2023-02-11T07:56:26.834Z,13.35
2023-02-11T07:58:55.127Z,14.63
2023-02-11T08:01:25.285Z,14.48
2023-02-11T08:03:52.764Z,14.63
2023-02-11T08:06:21.000Z,14.80
2023-02-11T08:08:48.386Z,14.60
2023-02-11T08:11:16.984Z,15.75
2023-02-11T08:13:44.615Z,15.27
2023-02-11T08:16:28.737Z,15.02
2023-02-11T08:18:57.684Z,15.10
2023-02-11T08:21:25.135Z,15.38
2023-02-11T08:23:52.773Z,15.45
2023-02-11T08:26:24.651Z,15.32
2023-02-11T08:28:52.875Z,16.02
2023-02-11T08:31:24.360Z,16.55
2023-02-11T08:33:51.906Z,15.25
2023-02-11T08:36:20.524Z,15.90
2023-02-11T08:38:47.818Z,15.80
2023-02-11T08:41:15.077Z,15.98
2023-02-11T08:43:42.967Z,14.27
2023-02-11T08:46:11.602Z,15.77
2023-02-11T08:48:38.965Z,15.90
2023-02-11T08:51:07.310Z,15.77
2023-02-11T08:53:34.915Z,16.60
2023-02-11T08:56:02.226Z,16.08
2023-02-11T08:58:29.487Z,15.15
2023-02-11T09:00:56.686Z,14.50
2023-02-11T09:03:24.031Z,16.17
2023-02-11T09:05:53.341Z,16.67
2023-02-11T09:08:21.420Z,15.55
2023-02-11T09:10:49.078Z,16.17
2023-02-11T09:13:16.991Z,15.73
2023-02-11T09:15:47.318Z,14.73
2023-02-11T09:18:14.782Z,16.65
2023-02-11T09:20:42.405Z,16.95
2023-02-11T09:23:10.668Z,15.98
2023-02-11T09:25:40.736Z,16.33
2023-02-11T09:28:11.584Z,15.38
2023-02-11T09:30:39.054Z,15.50
2023-02-11T09:33:06.379Z,15.75
2023-02-11T09:35:34.364Z,16.55
2023-02-11T09:38:01.872Z,16.30
2023-02-11T09:40:29.232Z,16.83
2023-02-11T09:43:04.103Z,16.73
2023-02-11T09:45:31.978Z,16.13
2023-02-11T09:48:08.362Z,16.48
2023-02-11T09:50:37.571Z,15.73
2023-02-11T09:53:04.913Z,17.95
2023-02-11T09:55:37.740Z,16.77
2023-02-11T09:58:08.195Z,17.75
2023-02-11T10:00:43.856Z,16.58
2023-02-11T10:03:14.169Z,16.20
2023-02-11T10:05:41.511Z,16.90
2023-02-11T10:08:15.907Z,16.25
2023-02-11T10:10:54.910Z,16.33
2023-02-11T10:13:36.673Z,17.70
2023-02-11T10:16:14.470Z,17.42
2023-02-11T10:18:51.103Z,17.02
2023-02-11T10:21:24.473Z,16.25
2023-02-11T10:23:55.047Z,15.73
2023-02-11T10:26:22.771Z,15.90
2023-02-11T10:28:51.735Z,16.73
2023-02-11T10:31:40.574Z,16.15
2023-02-11T10:34:11.802Z,16.40
2023-02-11T10:36:41.022Z,16.10
2023-02-11T10:39:18.680Z,16.02
2023-02-11T10:41:52.164Z,14.45
2023-02-11T10:44:25.070Z,15.45
2023-02-11T10:46:52.715Z,15.60
2023-02-11T10:49:34.151Z,16.08
2023-02-11T10:52:22.133Z,14.55
2023-02-11T10:55:12.207Z,15.35
2023-02-11T10:57:46.906Z,15.73
2023-02-11T11:00:23.912Z,15.18
2023-02-11T11:02:56.365Z,15.45
2023-02-11T11:05:34.978Z,15.45
2023-02-11T11:08:09.681Z,14.70
2023-02-11T11:10:43.634Z,14.65
2023-02-11T11:13:26.356Z,13.10
2023-02-11T11:16:11.012Z,13.23
2023-02-11T11:18:38.608Z,12.25
2023-02-11T11:21:07.758Z,13.68
2023-02-11T11:23:36.608Z,12.93
2023-02-11T11:26:07.079Z,12.23
2023-02-11T11:28:38.969Z,12.90
2023-02-11T11:31:06.753Z,12.77
2023-02-11T11:33:35.015Z,12.30
2023-02-11T11:36:05.685Z,11.82
2023-02-11T11:38:33.577Z,11.23
2023-02-11T11:41:19.648Z,11.23
2023-02-11T11:44:00.454Z,10.95
2023-02-11T11:46:32.487Z,9.55
2023-02-11T11:49:04.195Z,8.75
2023-02-11T11:51:33.165Z,8.10
2023-02-11T11:54:05.245Z,8.40
2023-02-11T11:56:38.338Z,7.22
2023-02-11T11:59:16.673Z,7.45
2023-02-11T12:01:52.430Z,8.02
2023-02-11T12:04:25.929Z,7.80
2023-02-11T12:07:15.190Z,6.90
2023-02-11T12:10:01.308Z,7.13
2023-02-11T12:12:32.569Z,7.05
2023-02-11T12:14:59.822Z,7.05
2023-02-11T12:17:29.889Z,7.68
2023-02-11T12:20:14.086Z,6.70
2023-02-11T12:22:44.533Z,6.82
2023-02-11T12:25:20.984Z,7.28
2023-02-11T12:27:56.870Z,7.70
2023-02-11T12:30:39.530Z,6.75
2023-02-11T12:33:26.665Z,6.75
2023-02-11T12:35:53.937Z,6.53
2023-02-11T12:38:30.439Z,7.07
2023-02-11T12:41:00.682Z,5.95
2023-02-11T12:43:38.534Z,6.72
2023-02-11T12:46:24.380Z,5.75
2023-02-11T12:49:03.763Z,6.45
2023-02-11T12:51:34.099Z,6.82
2023-02-11T12:54:01.385Z,6.10
2023-02-11T12:56:42.819Z,6.35
2023-02-11T12:59:28.635Z,6.60
2023-02-11T13:01:56.603Z,6.50
2023-02-11T13:04:30.668Z,6.53
2023-02-11T13:07:02.211Z,6.00
2023-02-11T13:09:33.192Z,6.00
2023-02-11T13:12:21.341Z,5.38
2023-02-11T13:14:49.425Z,6.70
2023-02-11T13:17:26.324Z,6.57
2023-02-11T13:19:55.924Z,5.78
2023-02-11T13:22:45.485Z,5.90
2023-02-11T13:25:31.594Z,6.00
2023-02-11T13:28:04.658Z,5.20
2023-02-11T13:30:34.555Z,6.53
2023-02-11T13:33:01.862Z,5.57
2023-02-11T13:35:33.447Z,5.63
2023-02-11T13:38:01.828Z,6.28
2023-02-11T13:40:33.968Z,5.55
2023-02-11T13:43:02.679Z,5.70
2023-02-11T13:45:32.746Z,5.88
2023-02-11T13:48:01.913Z,5.80
2023-02-11T13:50:30.565Z,5.72
2023-02-11T13:53:02.038Z,5.85
2023-02-11T13:55:30.559Z,5.70
2023-02-11T13:58:06.674Z,5.88
2023-02-11T14:00:36.970Z,6.20
2023-02-11T14:03:31.892Z,6.07
2023-02-11T14:06:27.288Z,5.68
2023-02-11T14:09:10.070Z,6.13
2023-02-11T14:11:49.692Z,6.00
2023-02-11T14:14:23.994Z,5.13
2023-02-11T14:17:00.750Z,6.13
2023-02-11T14:19:43.588Z,5.50
2023-02-11T14:22:11.857Z,6.00
2023-02-11T14:24:39.159Z,6.30
2023-02-11T14:27:08.660Z,6.07
2023-02-11T14:29:54.879Z,6.10
2023-02-11T14:32:28.171Z,5.97
2023-02-11T14:35:04.528Z,5.50
2023-02-11T14:37:32.073Z,6.88
2023-02-11T14:40:06.488Z,7.03
2023-02-11T14:42:34.484Z,5.72
2023-02-11T14:45:06.544Z,5.43
2023-02-11T14:47:54.111Z,5.80
2023-02-11T14:50:41.841Z,6.28
2023-02-11T14:53:13.701Z,5.50
2023-02-11T14:55:42.619Z,5.78
2023-02-11T14:58:17.747Z,5.85
2023-02-11T15:00:50.984Z,6.20
2023-02-11T15:03:41.239Z,6.65
2023-02-11T15:06:14.484Z,6.17
2023-02-11T15:08:44.599Z,5.65
2023-02-11T15:11:14.616Z,6.03
2023-02-11T15:13:47.516Z,6.68
2023-02-11T15:16:18.509Z,6.43
2023-02-11T15:18:55.078Z,6.20
2023-02-11T15:21:26.549Z,5.95
2023-02-11T15:24:16.880Z,5.45
2023-02-11T15:26:44.203Z,6.22
2023-02-11T15:29:20.558Z,5.13
2023-02-11T15:31:47.993Z,6.07
2023-02-11T15:34:15.269Z,6.03
2023-02-11T15:36:42.809Z,5.63
2023-02-11T15:39:16.952Z,6.10
2023-02-11T15:41:44.655Z,6.10
2023-02-11T15:44:28.240Z,6.72
2023-02-11T15:46:55.606Z,6.38
2023-02-11T15:49:24.406Z,6.47
2023-02-11T15:51:53.024Z,6.15
2023-02-11T15:54:21.984Z,6.50
2023-02-11T15:56:50.745Z,5.88
2023-02-11T15:59:18.654Z,5.75
2023-02-11T16:01:46.997Z,6.75
2023-02-11T16:04:25.138Z,6.00
2023-02-11T16:06:53.521Z,6.45
2023-02-11T16:09:20.773Z,6.05
2023-02-11T16:11:48.051Z,6.20
2023-02-11T16:14:21.629Z,6.75
2023-02-11T16:16:50.340Z,6.47
2023-02-11T16:19:20.286Z,6.60
2023-02-11T16:21:49.090Z,6.70
2023-02-11T16:24:25.009Z,5.72
2023-02-11T16:26:54.094Z,6.03
2023-02-11T16:29:24.919Z,6.10
2023-02-11T16:31:53.271Z,6.38
2023-02-11T16:34:22.215Z,6.53
2023-02-11T16:36:51.029Z,6.88
2023-02-11T16:39:19.223Z,5.97
2023-02-11T16:41:46.486Z,5.97
2023-02-11T16:44:13.808Z,5.85
2023-02-11T16:46:41.189Z,6.70
2023-02-11T16:49:16.660Z,6.93
2023-02-11T16:51:44.309Z,6.10
2023-02-11T16:54:16.182Z,6.82
2023-02-11T16:56:44.132Z,6.82
2023-02-11T16:59:11.786Z,6.18
2023-02-11T17:01:39.941Z,6.72
2023-02-11T17:04:07.486Z,6.75
2023-02-11T17:06:35.374Z,6.57
2023-02-11T17:09:02.738Z,7.40
2023-02-11T17:11:29.996Z,7.25
2023-02-11T17:13:57.244Z,6.55
2023-02-11T17:16:25.114Z,6.82
2023-02-11T17:18:52.479Z,7.32
2023-02-11T17:21:19.795Z,7.20
2023-02-11T17:23:47.019Z,7.28
2023-02-11T17:26:14.317Z,7.13
2023-02-11T17:28:41.564Z,7.35
2023-02-11T17:31:09.620Z,7.70
2023-02-11T17:33:37.862Z,6.78
2023-02-11T17:36:09.288Z,7.65
2023-02-11T17:38:37.536Z,7.47
2023-02-11T17:41:05.479Z,7.70
2023-02-11T17:43:33.033Z,7.97
2023-02-11T17:46:00.362Z,8.38
2023-02-11T17:48:27.665Z,8.50
2023-02-11T17:50:54.979Z,8.73
2023-02-11T17:53:22.366Z,7.28
2023-02-11T17:55:49.918Z,8.98
2023-02-11T17:58:17.431Z,9.50
2023-02-11T18:00:46.121Z,10.20
2023-02-11T18:03:13.436Z,8.75
2023-02-11T18:05:40.787Z,9.63
2023-02-11T18:08:08.571Z,9.95
2023-02-11T18:10:35.903Z,9.90
2023-02-11T18:13:04.187Z,9.30
2023-02-11T18:15:31.429Z,9.18
2023-02-11T18:17:58.747Z,8.68
2023-02-11T18:20:26.030Z,8.20
2023-02-11T18:22:53.354Z,9.15
2023-02-11T18:25:20.667Z,9.50
2023-02-11T18:27:47.966Z,9.63
2023-02-11T18:30:16.461Z,8.20
2023-02-11T18:32:43.842Z,8.18
2023-02-11T18:35:15.603Z,8.85
2023-02-11T18:37:43.550Z,8.88
2023-02-11T18:40:11.464Z,8.63
2023-02-11T18:42:39.083Z,8.45
2023-02-11T18:45:10.612Z,8.32
2023-02-11T18:47:38.513Z,8.73
2023-02-11T18:50:07.104Z,9.02
2023-02-11T18:52:36.885Z,9.00
2023-02-11T18:55:04.392Z,8.88
2023-02-11T18:57:31.754Z,9.65
2023-02-11T18:59:59.017Z,9.68
2023-02-11T19:02:26.501Z,9.68
2023-02-11T19:04:53.781Z,9.45
2023-02-11T19:07:21.019Z,9.43
2023-02-11T19:09:48.296Z,8.10
2023-02-11T19:12:15.587Z,9.15
2023-02-11T19:14:42.900Z,9.23
2023-02-11T19:17:12.431Z,9.25
2023-02-11T19:19:41.102Z,9.30
2023-02-11T19:22:10.557Z,10.55
2023-02-11T19:24:38.584Z,9.98
2023-02-11T19:27:06.107Z,9.43
2023-02-11T19:29:35.206Z,8.98
2023-02-11T19:32:03.372Z,8.45
2023-02-11T19:34:30.806Z,8.73
2023-02-11T19:37:00.811Z,10.32
2023-02-11T19:39:28.158Z,9.70
2023-02-11T19:41:55.502Z,8.70
2023-02-11T19:44:22.854Z,9.55
2023-02-11T19:46:52.757Z,9.70
2023-02-11T19:49:23.360Z,9.52
2023-02-11T19:51:51.402Z,9.45
2023-02-11T19:54:20.206Z,9.50
2023-02-11T19:56:47.702Z,8.65
2023-02-11T19:59:15.116Z,9.68
2023-02-11T20:01:42.590Z,10.43
2023-02-11T20:04:10.689Z,10.48
2023-02-11T20:06:38.010Z,9.93
2023-02-11T20:09:07.303Z,10.80
2023-02-11T20:11:35.383Z,9.80
2023-02-11T20:14:02.624Z,9.88
2023-02-11T20:16:46.161Z,10.02
2023-02-11T20:19:17.812Z,9.95
2023-02-11T20:21:47.392Z,8.82
2023-02-11T20:24:15.432Z,9.88
2023-02-11T20:26:42.717Z,10.50
2023-02-11T20:29:10.519Z,10.02
2023-02-11T20:31:38.459Z,8.75
2023-02-11T20:34:05.823Z,10.25
2023-02-11T20:36:35.714Z,10.63
2023-02-11T20:39:04.806Z,12.45
2023-02-11T20:41:34.420Z,10.60
2023-02-11T20:44:03.159Z,11.57
2023-02-11T20:46:32.887Z,11.02
2023-02-11T20:49:00.940Z,11.40
2023-02-11T20:51:29.852Z,12.35
2023-02-11T20:53:57.540Z,12.43
2023-02-11T20:56:27.174Z,12.98
2023-02-11T20:58:54.471Z,12.63
2023-02-11T21:01:23.370Z,12.82
2023-02-11T21:03:52.100Z,11.25
2023-02-11T21:06:20.070Z,11.40
2023-02-11T21:08:47.494Z,10.38
2023-02-11T21:11:15.113Z,10.50
2023-02-11T21:13:43.359Z,10.00
2023-02-11T21:16:14.143Z,9.60
2023-02-11T21:18:42.133Z,10.65
2023-02-11T21:21:09.403Z,10.07
2023-02-11T21:23:38.089Z,8.65
2023-02-11T21:26:05.491Z,10.32
2023-02-11T21:28:32.788Z,9.52
2023-02-11T21:31:00.272Z,9.50
2023-02-11T21:33:28.050Z,10.02
2023-02-11T21:35:59.300Z,9.32
2023-02-11T21:38:26.648Z,9.35
2023-02-11T21:40:54.044Z,9.32
2023-02-11T21:43:21.771Z,10.30
2023-02-11T21:45:50.969Z,9.57
2023-02-11T21:48:18.684Z,9.52
2023-02-11T21:50:47.371Z,9.48
2023-02-11T21:53:14.920Z,9.68
2023-02-11T21:55:42.384Z,9.93
2023-02-11T21:58:09.828Z,10.57
2023-02-11T22:00:37.307Z,9.95
2023-02-11T22:03:04.629Z,10.38
2023-02-11T22:05:31.930Z,10.82
2023-02-11T22:07:59.290Z,12.10
2023-02-11T22:10:26.604Z,11.02
2023-02-11T22:12:53.946Z,10.38
2023-02-11T22:15:21.208Z,10.60
2023-02-11T22:17:48.506Z,9.88
2023-02-11T22:20:16.860Z,10.75
2023-02-11T22:22:44.188Z,10.73
2023-02-11T22:25:11.447Z,11.10
2023-02-11T22:27:38.771Z,11.30
2023-02-11T22:30:07.310Z,10.43
2023-02-11T22:32:34.543Z,11.23
2023-02-11T22:35:01.885Z,11.77
2023-02-11T22:37:29.198Z,11.80
2023-02-11T22:39:56.425Z,11.15
2023-02-11T22:42:23.772Z,11.07
2023-02-11T22:44:51.107Z,10.32
2023-02-11T22:47:18.427Z,11.65
2023-02-11T22:49:45.728Z,10.52
2023-02-11T22:52:12.995Z,11.55
2023-02-11T22:54:40.297Z,12.15
2023-02-11T22:57:07.739Z,11.23
2023-02-11T22:59:35.157Z,12.27
2023-02-11T23:02:02.519Z,12.25
2023-02-11T23:04:29.850Z,12.77
2023-02-11T23:06:57.069Z,12.13
2023-02-11T23:09:24.362Z,13.57
2023-02-11T23:11:54.362Z,13.38
2023-02-11T23:14:21.911Z,11.38
2023-02-11T23:16:51.195Z,12.55
2023-02-11T23:19:18.904Z,12.55
2023-02-11T23:21:47.646Z,11.98
2023-02-11T23:24:15.704Z,13.32
2023-02-11T23:26:43.550Z,12.90
2023-02-11T23:29:11.341Z,12.40
2023-02-11T23:31:40.317Z,13.43
2023-02-11T23:34:08.561Z,13.27
2023-02-11T23:36:36.131Z,13.40
2023-02-11T23:39:03.687Z,14.32
2023-02-11T23:41:30.957Z,13.75
2023-02-11T23:43:58.579Z,14.23
2023-02-11T23:46:26.763Z,12.48
2023-02-11T23:48:54.149Z,14.05
2023-02-11T23:51:21.782Z,12.70
2023-02-11T23:53:49.710Z,13.57
2023-02-11T23:56:18.278Z,14.02
2023-02-11T23:58:48.258Z,13.95
